Time;durP1;ratioP1;P1;durP2;ratioP2;P2;SDS_P1;SDS_P2;PMS_P1;PMS_P2;Temp;Humidity;BMP_temperature;BMP_pressure;BME280_temperature;BME280_humidity;BME280_pressure;Samples;Min_cycle;Max_cycle;Signal;HPM_P1;HPM_P2
2022/08/28 00:00:58;;;;;;;2.03;1.13;;;;;;;22.32;70.52;99261.50;4954515;28;20461;-69
2022/08/28 00:03:27;;;;;;;0.75;0.75;;;;;;;22.29;71.19;99272.06;4954174;28;20054;-69
2022/08/28 00:05:58;;;;;;;8.07;1.95;;;;;;;22.22;71.53;99273.31;4955020;28;20050;-69
2022/08/28 00:08:29;;;;;;;1.92;1.77;;;;;;;22.13;72.59;99273.84;4951733;28;20405;-68
2022/08/28 00:10:58;;;;;;;2.70;1.73;;;;;;;21.95;73.83;99274.84;4950614;28;20040;-68
2022/08/28 00:13:27;;;;;;;2.70;1.43;;;;;;;21.74;74.36;99268.16;4953424;28;20044;-69
2022/08/28 00:16:01;;;;;;;1.73;1.63;;;;;;;21.62;74.81;99263.59;4951412;28;20050;-68
2022/08/28 00:18:30;;;;;;;1.38;1.27;;;;;;;21.46;75.89;99254.91;4952922;28;20040;-68
2022/08/28 00:21:00;;;;;;;1.38;1.20;;;;;;;21.33;76.99;99250.34;4953120;28;20385;-69
2022/08/28 00:23:31;;;;;;;8.02;1.48;;;;;;;21.31;77.45;99254.78;4950155;28;20035;-67
2022/08/28 00:27:51;;;;;;;1.98;1.73;;;;;;;21.34;78.47;99258.97;4952957;28;20094;-68
2022/08/28 00:28:59;;;;;;;3.60;1.10;;;;;;;21.36;79.48;99278.75;4954211;28;20035;-68
2022/08/28 00:31:29;;;;;;;0.75;0.75;;;;;;;21.38;80.03;99281.25;4953847;28;20098;-68
2022/08/28 00:34:01;;;;;;;1.52;1.40;;;;;;;21.43;80.31;99294.84;4954425;28;20465;-69
2022/08/28 00:36:30;;;;;;;2.40;1.80;;;;;;;21.42;80.84;99302.72;4954644;28;20050;-71
2022/08/28 00:38:59;;;;;;;1.00;0.90;;;;;;;21.34;81.16;99311.75;4951768;28;20079;-68
2022/08/28 00:41:30;;;;;;;1.20;1.10;;;;;;;21.32;81.79;99323.97;4955557;29;20043;-68
2022/08/28 00:44:10;;;;;;;1.50;1.40;;;;;;;21.28;81.97;99340.59;4955835;28;20091;-67
2022/08/28 00:46:42;;;;;;;1.55;1.45;;;;;;;21.23;81.50;99345.22;4955577;29;20106;-67
2022/08/28 00:49:13;;;;;;;1.30;1.20;;;;;;;21.23;81.84;99360.78;4950189;28;20043;-66
2022/08/28 00:54:21;;;;;;;0.60;0.60;;;;;;;21.14;82.58;99369.00;4948160;28;20521;-67
2022/08/28 00:56:52;;;;;;;1.88;1.02;;;;;;;21.04;82.55;99378.09;4951981;28;20047;-67
2022/08/28 00:59:23;;;;;;;1.15;1.05;;;;;;;20.88;82.63;99379.75;4953276;28;20047;-68
2022/08/28 01:01:57;;;;;;;1.35;1.10;;;;;;;20.75;82.62;99389.06;4951606;28;20154;-67
2022/08/28 01:04:31;;;;;;;1.13;1.02;;;;;;;20.67;83.03;99385.97;4954831;28;20061;-68
2022/08/28 01:07:02;;;;;;;1.75;0.98;;;;;;;20.58;83.80;99392.44;4950868;28;20486;-69
2022/08/28 01:09:32;;;;;;;1.10;1.00;;;;;;;20.54;84.66;99396.06;4953431;28;20058;-69
2022/08/28 01:12:05;;;;;;;1.67;0.88;;;;;;;20.51;85.11;99403.16;4953953;28;20561;-68
2022/08/28 01:14:38;;;;;;;5.68;2.13;;;;;;;20.48;85.54;99416.25;4953974;28;20040;-67
2022/08/28 01:17:10;;;;;;;0.82;0.82;;;;;;;20.43;85.78;99423.38;4953265;28;20502;-68
2022/08/28 01:19:44;;;;;;;1.30;1.20;;;;;;;20.40;85.98;99439.06;4946124;28;20047;-68
2022/08/28 01:22:21;;;;;;;0.57;0.57;;;;;;;20.35;86.09;99431.50;4952645;28;20046;-67
2022/08/28 01:24:54;;;;;;;0.70;0.70;;;;;;;20.32;86.18;99441.19;4955397;28;20054;-70
2022/08/28 01:27:23;;;;;;;1.05;0.95;;;;;;;20.31;86.29;99429.13;4946214;28;20048;-68
2022/08/28 01:29:52;;;;;;;0.90;0.90;;;;;;;20.32;86.32;99400.56;4951984;28;20043;-69
2022/08/28 01:32:32;;;;;;;0.80;0.80;;;;;;;20.44;86.25;99389.59;4955638;28;20043;-69
2022/08/28 01:35:02;;;;;;;1.25;0.90;;;;;;;20.55;86.37;99365.78;4956247;28;20047;-68
2022/08/28 01:37:31;;;;;;;;;;;;;;;20.67;86.17;99357.44;4955605;28;20042;-67
2022/08/28 01:40:01;;;;;;;0.73;0.73;;;;;;;20.73;86.46;99348.53;4956081;28;19923;-67
2022/08/28 01:42:30;;;;;;;1.95;1.60;;;;;;;20.75;86.46;99344.09;4956865;28;20054;-67
2022/08/28 01:44:59;;;;;;;1.10;1.00;;;;;;;20.80;86.19;99342.97;4954470;28;20043;-67
2022/08/28 01:47:28;;;;;;;0.55;0.55;;;;;;;20.80;86.07;99345.56;4955963;28;20047;-67
2022/08/28 01:49:57;;;;;;;2.33;1.55;;;;;;;20.74;85.67;99340.66;4955482;28;20215;-68
2022/08/28 01:52:25;;;;;;;0.50;0.50;;;;;;;20.75;85.66;99337.16;4954827;28;20039;-67
2022/08/28 01:54:54;;;;;;;1.35;1.17;;;;;;;20.78;85.55;99331.00;4953846;28;20035;-68
2022/08/28 01:57:26;;;;;;;0.70;0.70;;;;;;;20.78;85.61;99318.84;4954984;28;20043;-67
2022/08/28 01:59:55;;;;;;;0.90;0.82;;;;;;;20.84;85.30;99326.34;4955995;28;20059;-66
2022/08/28 02:02:24;;;;;;;2.57;1.47;;;;;;;20.84;85.43;99321.16;4955639;28;20043;-67
2022/08/28 02:04:53;;;;;;;0.73;0.70;;;;;;;20.88;85.34;99337.41;4956021;28;20043;-66
2022/08/28 02:07:22;;;;;;;1.13;1.00;;;;;;;20.73;85.37;99336.41;4954642;28;20051;-67
2022/08/28 02:09:50;;;;;;;1.57;0.70;;;;;;;20.55;85.37;99306.13;4951904;28;20055;-66
2022/08/28 02:12:19;;;;;;;0.60;0.60;;;;;;;20.66;85.56;99316.84;4953500;28;20051;-67
2022/08/28 02:14:50;;;;;;;0.75;0.75;;;;;;;20.66;85.33;99312.50;4955796;28;20043;-67
2022/08/28 02:17:18;;;;;;;0.93;0.90;;;;;;;20.69;85.72;99298.53;4957561;28;20043;-67
2022/08/28 02:19:47;;;;;;;0.70;0.70;;;;;;;20.68;85.78;99283.91;4957548;28;20067;-69
2022/08/28 02:22:16;;;;;;;;;;;;;;;20.65;85.67;99268.47;4955824;28;20044;-71
2022/08/28 02:24:45;;;;;;;0.90;0.90;;;;;;;20.66;85.91;99262.38;4954619;28;20338;-67
2022/08/28 02:27:14;;;;;;;1.20;1.10;;;;;;;20.61;86.27;99261.78;4957352;28;20465;-67
2022/08/28 02:29:43;;;;;;;1.00;0.80;;;;;;;20.60;86.51;99260.09;4952670;28;20405;-68
2022/08/28 02:32:13;;;;;;;1.10;1.02;;;;;;;20.58;86.69;99248.94;4954611;28;20049;-68
2022/08/28 02:34:42;;;;;;;3.00;1.20;;;;;;;20.55;86.80;99247.34;4952955;28;20087;-68
2022/08/28 02:37:12;;;;;;;1.48;1.38;;;;;;;20.49;87.08;99237.25;4957518;28;20126;-67
2022/08/28 02:39:41;;;;;;;1.20;1.15;;;;;;;20.47;86.83;99235.63;4952781;28;20502;-68
2022/08/28 02:42:10;;;;;;;1.00;0.87;;;;;;;20.52;86.78;99241.44;4956210;28;20106;-67
2022/08/28 02:44:39;;;;;;;1.13;1.02;;;;;;;20.50;86.36;99253.66;4956922;28;20493;-67
2022/08/28 02:47:08;;;;;;;0.90;0.80;;;;;;;20.47;86.53;99251.19;4945612;28;20040;-67
2022/08/28 02:49:38;;;;;;;1.33;1.20;;;;;;;20.49;86.44;99260.59;4954217;28;20480;-68
2022/08/28 02:52:07;;;;;;;0.70;0.70;;;;;;;20.49;86.33;99252.81;4952745;28;20036;-68
2022/08/28 02:54:38;;;;;;;1.05;0.90;;;;;;;20.47;86.23;99246.84;4957621;28;20529;-68
2022/08/28 02:57:08;;;;;;;0.85;0.85;;;;;;;20.40;86.02;99252.41;4954818;28;20050;-68
2022/08/28 02:59:37;;;;;;;0.75;0.65;;;;;;;20.38;86.10;99244.72;4955894;28;20061;-68
2022/08/28 03:02:06;;;;;;;1.23;1.05;;;;;;;20.33;86.11;99240.66;4954685;28;20070;-67
2022/08/28 03:04:35;;;;;;;1.15;1.08;;;;;;;20.27;85.98;99238.34;4956816;28;20047;-66
2022/08/28 03:07:08;;;;;;;0.80;0.80;;;;;;;20.21;86.41;99238.59;4953994;28;20067;-67
2022/08/28 03:09:40;;;;;;;2.25;1.27;;;;;;;20.15;86.65;99241.50;4954302;28;20051;-67
2022/08/28 03:12:09;;;;;;;2.13;1.90;;;;;;;20.12;86.98;99226.06;4954890;28;20493;-66
2022/08/28 03:14:38;;;;;;;1.20;0.77;;;;;;;20.09;86.97;99227.06;4954626;28;20039;-66
2022/08/28 03:17:07;;;;;;;0.80;0.80;;;;;;;19.99;87.12;99220.63;4955119;28;20456;-66
2022/08/28 03:19:36;;;;;;;2.35;1.48;;;;;;;20.02;87.42;99220.47;4954720;28;20127;-67
2022/08/28 03:22:06;;;;;;;0.60;0.60;;;;;;;20.01;87.43;99217.03;4957081;28;20098;-68
2022/08/28 03:24:33;;;;;;;1.90;0.80;;;;;;;20.00;87.45;99217.97;4955000;28;20049;-66
2022/08/28 03:27:02;;;;;;;0.88;0.85;;;;;;;20.00;87.60;99215.38;4955230;28;20094;-68
2022/08/28 03:29:31;;;;;;;1.10;1.00;;;;;;;20.03;87.62;99211.81;4954323;28;20066;-67
2022/08/28 03:32:00;;;;;;;1.27;1.10;;;;;;;20.05;87.62;99216.00;4955400;28;20035;-67
2022/08/28 03:34:29;;;;;;;1.52;0.80;;;;;;;20.03;87.55;99212.63;4955237;28;20032;-67
2022/08/28 03:36:58;;;;;;;0.63;0.63;;;;;;;20.06;87.63;99211.66;4954306;28;20101;-69
2022/08/28 03:39:28;;;;;;;1.17;1.08;;;;;;;20.10;87.74;99207.16;4955090;28;20516;-69
2022/08/28 03:41:57;;;;;;;0.65;0.65;;;;;;;19.98;87.66;99190.44;4953946;28;20150;-68
2022/08/28 03:44:26;;;;;;;;;;;;;;;20.12;87.70;99206.19;4956071;28;20059;-68
2022/08/28 03:46:55;;;;;;;0.70;0.70;;;;;;;20.14;87.63;99213.88;4953322;28;20372;-67
2022/08/28 03:49:23;;;;;;;0.63;0.63;;;;;;;20.21;87.47;99220.44;4948922;28;20512;-69
2022/08/28 03:51:52;;;;;;;3.08;0.73;;;;;;;20.27;87.46;99222.81;4937373;29;20091;-69
2022/08/28 03:54:21;;;;;;;0.70;0.70;;;;;;;20.30;87.34;99225.25;4949771;28;20094;-71
2022/08/28 03:56:51;;;;;;;0.70;0.70;;;;;;;20.33;87.30;99222.50;4954399;28;20401;-68
2022/08/28 03:59:20;;;;;;;0.82;0.80;;;;;;;20.37;87.67;99221.47;4954582;28;20416;-68
2022/08/28 04:01:54;;;;;;;0.95;0.85;;;;;;;20.38;87.55;99233.50;4952920;28;20047;-69
2022/08/28 04:04:24;;;;;;;0.52;0.52;;;;;;;20.36;87.49;99236.16;4944322;28;20047;-68
2022/08/28 04:06:52;;;;;;;0.93;0.93;;;;;;;20.32;87.39;99229.47;4954823;28;20035;-68
2022/08/28 04:09:21;;;;;;;1.45;1.08;;;;;;;20.28;87.29;99232.25;4953762;28;20425;-68
2022/08/28 04:11:52;;;;;;;0.73;0.73;;;;;;;20.29;87.52;99241.72;4953774;28;20066;-69
2022/08/28 04:14:20;;;;;;;14.68;1.40;;;;;;;20.31;87.44;99245.06;4951948;28;20043;-69
2022/08/28 04:16:49;;;;;;;1.40;0.98;;;;;;;20.29;87.41;99249.50;4952845;28;20043;-69
2022/08/28 04:19:18;;;;;;;1.30;1.20;;;;;;;20.29;87.47;99250.34;4954632;28;20051;-68
2022/08/28 04:21:47;;;;;;;0.65;0.65;;;;;;;20.28;87.32;99253.81;4953905;28;20039;-68
2022/08/28 04:24:16;;;;;;;1.20;1.10;;;;;;;20.28;87.42;99252.97;4952860;28;20043;-68
2022/08/28 04:26:44;;;;;;;1.30;1.20;;;;;;;20.25;87.49;99248.78;4954588;29;20111;-68
2022/08/28 04:29:16;;;;;;;1.63;1.50;;;;;;;20.22;87.72;99245.47;4954491;28;20035;-68
2022/08/28 04:31:45;;;;;;;0.90;0.88;;;;;;;20.27;87.64;99252.16;4954331;28;20071;-70
2022/08/28 04:34:13;;;;;;;1.20;1.10;;;;;;;20.28;87.81;99252.97;4950635;28;20065;-69
2022/08/28 04:36:42;;;;;;;0.50;0.50;;;;;;;20.30;88.02;99251.19;4951948;28;20465;-69
2022/08/28 04:39:11;;;;;;;0.40;0.40;;;;;;;20.31;87.64;99250.25;4954562;28;20562;-69
2022/08/28 04:41:40;;;;;;;1.05;0.88;;;;;;;20.30;87.86;99246.00;4953912;28;20044;-69
2022/08/28 04:44:09;;;;;;;3.47;1.80;;;;;;;20.36;87.99;99251.72;4955081;28;20121;-69
2022/08/28 04:46:39;;;;;;;3.05;1.98;;;;;;;20.42;87.95;99250.59;4954678;28;20041;-68
2022/08/28 04:49:08;;;;;;;1.25;0.93;;;;;;;20.44;87.74;99241.00;4951466;28;20516;-69
2022/08/28 04:51:37;;;;;;;1.43;1.17;;;;;;;20.48;87.86;99234.75;4943019;28;20043;-68
2022/08/28 04:54:10;;;;;;;1.27;1.17;;;;;;;20.50;87.65;99238.09;4952088;28;20301;-69
2022/08/28 04:56:40;;;;;;;1.05;0.95;;;;;;;20.51;87.40;99232.84;4950913;28;20047;-68
2022/08/28 04:59:10;;;;;;;1.83;1.35;;;;;;;20.56;87.41;99228.25;4952320;28;20118;-68
2022/08/28 05:01:41;;;;;;;;;;;;;;;20.59;87.35;99230.72;4949336;28;20043;-68
2022/08/28 05:04:11;;;;;;;0.70;0.70;;;;;;;20.64;87.28;99235.66;4951894;28;20025;-68
2022/08/28 05:06:44;;;;;;;1.25;1.10;;;;;;;20.68;87.32;99235.44;4954843;28;20099;-68
2022/08/28 05:09:16;;;;;;;1.08;0.98;;;;;;;20.69;87.28;99241.47;4953301;28;20058;-71
2022/08/28 05:11:45;;;;;;;1.05;1.00;;;;;;;20.70;86.80;99236.22;4953196;28;21131;-69
2022/08/28 05:14:15;;;;;;;0.90;0.90;;;;;;;20.71;86.79;99243.09;4953683;28;20051;-69
2022/08/28 05:16:48;;;;;;;2.38;1.63;;;;;;;20.67;86.40;99249.34;4952981;28;20036;-71
2022/08/28 05:19:18;;;;;;;0.80;0.80;;;;;;;20.66;86.60;99245.06;4951847;28;20138;-68
2022/08/28 05:21:49;;;;;;;1.35;1.25;;;;;;;20.66;86.27;99252.00;4953569;28;20131;-69
2022/08/28 05:24:18;;;;;;;3.42;0.98;;;;;;;20.70;86.77;99245.75;4953726;28;20114;-69
2022/08/28 05:26:47;;;;;;;0.82;0.70;;;;;;;20.72;86.77;99238.75;4952939;28;20044;-69
2022/08/28 05:29:16;;;;;;;0.73;0.70;;;;;;;20.77;86.39;99241.94;4952763;28;20039;-69
2022/08/28 05:31:47;;;;;;;0.65;0.65;;;;;;;20.85;86.40;99244.19;4952246;28;20083;-68
2022/08/28 05:34:16;;;;;;;1.35;1.10;;;;;;;20.90;86.05;99243.00;4952949;28;20063;-69
2022/08/28 05:36:45;;;;;;;;;;;;;;;20.97;86.20;99246.16;4952362;28;20379;-69
2022/08/28 05:39:14;;;;;;;0.77;0.77;;;;;;;20.99;85.98;99247.75;4952737;28;19969;-69
2022/08/28 05:41:45;;;;;;;1.95;1.08;;;;;;;21.04;85.96;99245.75;4951997;28;20043;-69
2022/08/28 05:44:16;;;;;;;1.38;1.27;;;;;;;21.11;85.99;99247.19;4952977;28;20501;-68
2022/08/28 05:46:47;;;;;;;2.10;1.23;;;;;;;21.14;85.67;99247.00;4951808;28;20139;-71
2022/08/28 05:49:18;;;;;;;0.88;0.70;;;;;;;21.24;85.86;99250.81;4955414;29;20047;-69
2022/08/28 05:51:47;;;;;;;2.47;1.15;;;;;;;21.25;85.40;99249.06;4950252;28;20087;-70
2022/08/28 05:54:16;;;;;;;4.32;1.23;;;;;;;21.25;85.51;99260.31;4953796;28;20102;-69
2022/08/28 05:56:46;;;;;;;1.10;1.00;;;;;;;21.21;85.02;99258.75;4953373;28;20047;-69
2022/08/28 05:59:15;;;;;;;1.60;1.42;;;;;;;21.25;85.13;99254.25;4951486;28;20560;-69
2022/08/28 06:01:48;;;;;;;1.00;0.90;;;;;;;21.25;84.96;99265.50;4949757;28;20046;-69
2022/08/28 06:04:22;;;;;;;1.15;1.05;;;;;;;21.25;84.51;99270.69;4953801;28;20465;-69
2022/08/28 06:06:52;;;;;;;2.40;1.25;;;;;;;21.29;84.46;99263.56;4957319;28;20078;-70
2022/08/28 06:09:24;;;;;;;1.13;1.07;;;;;;;21.39;84.32;99264.78;4954027;28;20051;-70
2022/08/28 06:11:59;;;;;;;1.77;1.42;;;;;;;21.51;84.02;99258.09;4954621;28;20343;-69
2022/08/28 06:14:30;;;;;;;1.48;1.38;;;;;;;21.62;83.63;99261.00;4953407;28;20050;-70
2022/08/28 06:17:02;;;;;;;1.65;1.45;;;;;;;21.64;83.10;99264.34;4954452;28;20134;-69
2022/08/28 06:19:32;;;;;;;1.83;0.93;;;;;;;21.63;82.83;99268.72;4952444;28;20055;-70
2022/08/28 06:22:08;;;;;;;2.25;1.48;;;;;;;21.67;82.49;99272.81;4953853;28;20047;-69
2022/08/28 06:24:38;;;;;;;1.42;1.30;;;;;;;21.70;82.53;99271.81;4957321;28;20054;-70
2022/08/28 06:27:06;;;;;;;;;;;;;;;21.71;82.12;99270.91;4958545;28;20414;-69
2022/08/28 06:29:35;;;;;;;3.42;1.20;;;;;;;21.75;82.15;99272.41;4957263;28;20008;-70
2022/08/28 06:32:05;;;;;;;1.40;1.13;;;;;;;21.82;81.96;99273.78;4957838;28;20079;-70
2022/08/28 06:34:34;;;;;;;1.13;1.02;;;;;;;21.87;81.86;99269.19;4956534;28;20101;-71
2022/08/28 06:37:03;;;;;;;1.50;1.07;;;;;;;21.87;81.55;99275.25;4956192;28;20039;-70
2022/08/28 06:39:31;;;;;;;0.85;0.80;;;;;;;21.83;80.93;99268.50;4952564;28;20035;-71
2022/08/28 06:48:41;;;;;;;1.25;1.00;;;;;;;21.94;80.36;99286.16;4757672;30;20044;-60
2022/08/28 06:51:12;;;;;;;0.65;0.65;;;;;;;21.95;80.19;99282.63;4758848;30;20052;-59
2022/08/28 06:53:42;;;;;;;1.95;1.77;;;;;;;21.95;79.87;99293.03;4760084;30;20106;-60
2022/08/28 06:56:13;;;;;;;0.60;0.60;;;;;;;21.89;79.46;99288.16;4757160;30;20048;-59
2022/08/28 06:58:55;;;;;;;13.77;2.78;;;;;;;21.92;79.55;99282.78;4751876;30;20059;-59
2022/08/28 07:01:27;;;;;;;0.98;0.95;;;;;;;21.96;79.24;99279.94;4760060;30;20055;-61
2022/08/28 07:04:01;;;;;;;1.33;0.80;;;;;;;22.00;78.98;99291.03;4763369;30;20054;-59
2022/08/28 07:06:32;;;;;;;0.70;0.70;;;;;;;22.02;78.75;99292.63;4770143;29;20109;-61
2022/08/28 07:09:01;;;;;;;1.52;1.40;;;;;;;22.02;78.26;99289.19;4765497;30;20043;-60
2022/08/28 07:11:32;;;;;;;1.13;1.03;;;;;;;22.08;78.00;99283.63;4751195;30;20080;-59
2022/08/28 07:14:02;;;;;;;1.20;0.85;;;;;;;22.12;78.02;99290.38;4760431;30;20313;-60
2022/08/28 07:16:33;;;;;;;3.35;1.45;;;;;;;22.14;77.81;99292.88;4753964;30;20451;-59
2022/08/28 07:19:04;;;;;;;0.85;0.85;;;;;;;22.15;77.63;99294.56;4754744;30;20059;-59
2022/08/28 07:21:34;;;;;;;1.15;0.98;;;;;;;22.16;77.71;99296.22;4754296;30;20102;-58
2022/08/28 07:24:07;;;;;;;0.75;0.75;;;;;;;22.22;77.83;99306.31;4754371;30;20083;-59
2022/08/28 07:26:36;;;;;;;0.70;0.70;;;;;;;22.22;77.73;99304.53;4754195;30;20050;-59
2022/08/28 07:29:06;;;;;;;0.68;0.68;;;;;;;22.20;77.62;99308.97;4754540;30;20052;-59
2022/08/28 07:31:41;;;;;;;1.77;0.90;;;;;;;22.21;77.68;99304.63;4754713;30;20109;-59
2022/08/28 07:34:12;;;;;;;0.75;0.75;;;;;;;22.20;77.63;99311.59;4754486;30;20060;-59
2022/08/28 07:36:42;;;;;;;1.40;1.30;;;;;;;22.24;77.53;99314.88;4754472;30;20060;-59
2022/08/28 07:39:12;;;;;;;6.93;2.85;;;;;;;22.22;77.44;99312.34;4754043;30;20045;-58
2022/08/28 07:41:42;;;;;;;4.30;1.35;;;;;;;22.22;77.52;99320.13;4754079;30;20060;-59
2022/08/28 07:46:54;;;;;;;1.15;1.02;;;;;;;22.17;77.89;99309.13;4765691;30;20062;-59
2022/08/28 07:49:25;;;;;;;0.50;0.50;;;;;;;22.27;77.56;99315.53;4789639;30;20083;-59
2022/08/28 07:51:54;;;;;;;0.98;0.90;;;;;;;22.27;77.46;99319.88;4789919;29;20457;-59
2022/08/28 07:54:23;;;;;;;1.07;1.07;;;;;;;22.27;77.42;99320.72;4789726;30;20057;-59
2022/08/28 07:56:52;;;;;;;0.75;0.70;;;;;;;22.26;77.08;99324.28;4789460;30;20330;-59
2022/08/28 07:59:21;;;;;;;0.85;0.85;;;;;;;22.23;77.08;99323.59;4789337;30;20055;-58
2022/08/28 08:01:51;;;;;;;0.80;0.80;;;;;;;22.24;76.77;99320.06;4789359;30;20066;-59
2022/08/28 08:04:22;;;;;;;1.25;1.15;;;;;;;22.30;77.05;99320.56;4789564;30;20138;-59
2022/08/28 08:06:53;;;;;;;0.65;0.55;;;;;;;22.33;77.30;99325.63;4789326;29;20059;-59
2022/08/28 08:09:26;;;;;;;0.60;0.60;;;;;;;22.41;77.43;99326.00;4789273;29;20047;-59
2022/08/28 08:11:56;;;;;;;0.73;0.73;;;;;;;22.43;77.61;99326.81;4789100;30;20047;-59
2022/08/28 08:14:25;;;;;;;1.30;1.20;;;;;;;22.38;77.24;99328.81;4789454;30;20116;-59
2022/08/28 08:16:55;;;;;;;1.15;0.98;;;;;;;22.37;77.06;99324.53;4789942;30;20221;-58
2022/08/28 08:19:24;;;;;;;1.13;1.00;;;;;;;22.44;76.96;99332.81;4789404;29;20126;-59
2022/08/28 08:21:54;;;;;;;1.13;1.03;;;;;;;22.45;76.95;99339.72;4788946;30;20354;-58
2022/08/28 08:24:24;;;;;;;1.90;1.60;;;;;;;22.48;76.72;99339.56;4788958;30;20052;-58
2022/08/28 08:26:56;;;;;;;1.10;0.85;;;;;;;22.41;76.36;99328.63;4789001;30;20108;-59
2022/08/28 08:29:31;;;;;;;9.23;1.23;;;;;;;22.56;76.65;99347.75;4788787;30;20052;-58
2022/08/28 08:32:04;;;;;;;1.27;1.17;;;;;;;22.59;76.93;99343.22;4788861;29;20054;-58
2022/08/28 08:34:35;;;;;;;2.88;0.60;;;;;;;22.61;76.63;99354.44;4788860;30;20058;-58
2022/08/28 08:37:06;;;;;;;2.38;1.38;;;;;;;22.63;76.43;99344.78;4789206;29;20047;-59
2022/08/28 08:39:36;;;;;;;3.65;0.70;;;;;;;22.64;76.89;99346.47;4786832;29;20051;-59
2022/08/28 08:42:15;;;;;;;1.25;1.13;;;;;;;22.68;77.01;99353.16;4788299;29;20307;-59
2022/08/28 08:44:46;;;;;;;0.90;0.82;;;;;;;22.79;77.33;99354.34;4780415;30;20120;-59
2022/08/28 08:47:21;;;;;;;1.50;0.68;;;;;;;22.77;77.63;99354.41;4787773;29;20072;-59
2022/08/28 08:49:54;;;;;;;1.73;1.25;;;;;;;22.69;77.78;99333.19;4789211;29;20059;-59
2022/08/28 08:52:36;;;;;;;1.50;1.02;;;;;;;22.95;77.78;99355.16;4789153;29;20469;-59
2022/08/28 08:55:19;;;;;;;1.00;0.90;;;;;;;22.96;77.23;99362.03;4788845;30;20093;-58
2022/08/28 08:57:55;;;;;;;1.17;1.08;;;;;;;22.98;76.30;99366.25;4788621;29;20142;-59
2022/08/28 09:00:25;;;;;;;1.10;1.00;;;;;;;22.99;75.68;99367.91;4788555;29;20086;-59
2022/08/28 09:03:03;;;;;;;1.90;1.20;;;;;;;22.97;75.31;99367.16;4788520;29;20572;-59
2022/08/28 09:05:48;;;;;;;0.65;0.65;;;;;;;22.94;74.95;99374.31;4788509;29;20063;-58
2022/08/28 09:08:26;;;;;;;7.45;1.60;;;;;;;22.99;74.88;99364.47;4788044;29;20063;-58
2022/08/28 09:11:03;;;;;;;1.45;1.23;;;;;;;22.94;74.67;99369.09;4788442;29;20051;-58
2022/08/28 09:13:44;;;;;;;2.53;1.27;;;;;;;23.03;74.70;99374.63;4788384;29;20158;-58
2022/08/28 09:16:26;;;;;;;1.13;0.93;;;;;;;23.12;74.91;99368.91;4788191;29;20138;-59
2022/08/28 09:18:57;;;;;;;1.75;1.27;;;;;;;23.22;74.42;99379.63;4787509;29;20051;-59
2022/08/28 09:21:30;;;;;;;1.08;0.98;;;;;;;23.25;73.89;99387.28;4788535;29;20062;-58
2022/08/28 09:24:07;;;;;;;0.98;0.85;;;;;;;23.33;73.40;99385.91;4788281;29;20051;-58
2022/08/28 09:26:40;;;;;;;0.68;0.68;;;;;;;23.33;73.29;99387.66;4788464;29;20395;-59
2022/08/28 09:29:17;;;;;;;1.10;1.00;;;;;;;23.44;73.61;99395.75;4788233;29;20052;-60
2022/08/28 09:31:46;;;;;;;1.02;1.02;;;;;;;23.52;73.66;99390.91;4788568;29;20047;-60
2022/08/28 09:34:33;;;;;;;0.93;0.67;;;;;;;23.61;73.48;99392.97;4788133;29;20071;-59
2022/08/28 09:37:08;;;;;;;0.70;0.70;;;;;;;23.67;74.03;99392.63;4788493;29;20451;-59
2022/08/28 09:39:42;;;;;;;1.08;1.00;;;;;;;23.71;73.84;99398.50;4786877;29;20047;-59
2022/08/28 09:45:05;;;;;;;1.23;1.13;;;;;;;24.04;73.64;99395.66;4791752;29;20047;-59
2022/08/28 09:47:40;;;;;;;1.00;0.90;;;;;;;24.04;72.76;99396.50;4791469;30;20074;-59
2022/08/28 09:50:31;;;;;;;1.20;1.10;;;;;;;24.19;72.24;99393.00;4791854;29;20573;-59
2022/08/28 09:53:18;;;;;;;3.70;1.55;;;;;;;24.31;71.80;99394.00;4791441;29;20075;-59
2022/08/28 09:56:00;;;;;;;1.48;1.38;;;;;;;24.41;71.93;99395.13;4791490;29;20065;-58
2022/08/28 09:58:35;;;;;;;1.38;1.15;;;;;;;24.41;71.22;99400.34;4791951;29;20398;-59
2022/08/28 10:01:34;;;;;;;0.88;0.88;;;;;;;24.53;71.35;99399.59;4791623;29;20047;-58
2022/08/28 10:04:22;;;;;;;0.75;0.75;;;;;;;24.63;71.43;99391.09;4791347;29;20055;-58
2022/08/28 10:06:55;;;;;;;3.63;2.13;;;;;;;24.82;71.16;99393.41;4791637;29;20074;-59
2022/08/28 10:09:32;;;;;;;0.70;0.70;;;;;;;24.93;70.47;99390.94;4791628;29;20090;-59
2022/08/28 10:12:20;;;;;;;0.75;0.65;;;;;;;24.97;69.87;99395.06;4791879;29;20105;-59
2022/08/28 10:15:01;;;;;;;0.98;0.90;;;;;;;25.04;70.03;99391.09;4790313;30;20063;-59
2022/08/28 10:17:41;;;;;;;0.75;0.75;;;;;;;25.17;69.75;99401.63;4791209;29;20505;-59
2022/08/28 10:20:14;;;;;;;;;;;;;;;25.17;68.87;99399.81;4791831;29;20085;-60
2022/08/28 10:22:51;;;;;;;0.82;0.80;;;;;;;25.28;67.82;99392.13;4791306;29;19979;-60
2022/08/28 10:25:32;;;;;;;1.05;0.95;;;;;;;25.34;67.17;99396.09;4791037;29;20494;-60
2022/08/28 10:28:18;;;;;;;1.35;0.90;;;;;;;25.45;66.13;99392.81;4790973;29;20052;-60
2022/08/28 10:30:59;;;;;;;1.75;1.15;;;;;;;25.57;64.72;99387.63;4790951;29;20059;-60
2022/08/28 10:33:43;;;;;;;0.82;0.82;;;;;;;25.43;64.31;99386.84;4804723;29;20063;-59
2022/08/28 10:36:19;;;;;;;0.80;0.80;;;;;;;25.44;65.10;99388.50;4790889;29;20138;-59
2022/08/28 10:39:14;;;;;;;0.70;0.70;;;;;;;25.39;65.07;99393.22;4789598;30;20589;-59
2022/08/28 10:41:46;;;;;;;1.30;1.02;;;;;;;25.27;64.01;99387.84;4791124;29;20059;-60
2022/08/28 10:44:23;;;;;;;0.70;0.70;;;;;;;25.38;64.14;99379.31;4790716;29;20059;-59
2022/08/28 10:46:55;;;;;;;0.98;0.93;;;;;;;25.56;64.26;99379.88;4790450;29;20063;-59
2022/08/28 10:49:28;;;;;;;1.08;0.98;;;;;;;25.76;63.46;99384.59;4790886;29;20051;-59
2022/08/28 10:52:02;;;;;;;1.85;1.05;;;;;;;26.00;62.80;99377.72;4790210;29;20142;-59
2022/08/28 10:54:39;;;;;;;0.77;0.77;;;;;;;26.17;62.16;99369.56;4790751;29;20055;-60
2022/08/28 10:57:22;;;;;;;1.27;1.02;;;;;;;26.32;61.95;99363.25;4790508;29;20089;-59
2022/08/28 10:59:53;;;;;;;1.75;1.33;;;;;;;26.61;61.86;99367.25;4790457;29;20502;-60
2022/08/28 11:02:27;;;;;;;1.00;0.93;;;;;;;26.79;60.35;99372.16;4790345;29;20043;-59
2022/08/28 11:04:57;;;;;;;0.60;0.60;;;;;;;26.92;60.14;99367.72;4790408;29;20055;-59
2022/08/28 11:07:31;;;;;;;1.17;0.73;;;;;;;26.97;58.69;99366.41;4790427;29;20069;-60
2022/08/28 11:10:18;;;;;;;0.57;0.57;;;;;;;27.00;58.42;99362.75;4790589;29;20055;-59
2022/08/28 11:12:50;;;;;;;0.98;0.88;;;;;;;26.86;58.29;99365.53;4789980;29;20590;-59
2022/08/28 11:15:40;;;;;;;0.82;0.82;;;;;;;26.82;59.17;99366.72;4790403;29;20405;-60
2022/08/28 11:18:40;;;;;;;0.60;0.60;;;;;;;26.92;59.85;99362.47;4790064;29;20510;-59
2022/08/28 11:21:13;;;;;;;;;;;;;;;27.06;59.86;99357.06;4790483;29;20062;-61
2022/08/28 11:23:46;;;;;;;0.60;0.60;;;;;;;27.18;60.77;99366.66;4790201;30;19942;-60
2022/08/28 11:26:29;;;;;;;7.03;1.02;;;;;;;27.29;59.42;99361.44;4790299;29;20101;-59
2022/08/28 11:29:01;;;;;;;0.50;0.50;;;;;;;27.41;58.82;99360.56;4790209;29;20051;-59
2022/08/28 11:31:40;;;;;;;0.60;0.60;;;;;;;27.43;58.35;99363.06;4790136;29;20051;-59
2022/08/28 11:34:41;;;;;;;0.82;0.82;;;;;;;27.45;57.71;99355.94;4789835;29;20570;-59
2022/08/28 11:37:36;;;;;;;0.90;0.90;;;;;;;27.30;57.52;99365.75;4789920;29;20047;-59
2022/08/28 11:40:17;;;;;;;7.53;1.25;;;;;;;27.43;58.09;99358.66;4789736;29;20059;-60
2022/08/28 11:42:48;;;;;;;0.85;0.80;;;;;;;27.38;57.42;99366.03;4789727;29;20494;-60
2022/08/28 11:45:21;;;;;;;0.60;0.60;;;;;;;27.47;57.54;99360.13;4789619;29;20061;-59
2022/08/28 11:47:55;;;;;;;0.70;0.70;;;;;;;27.63;57.54;99355.38;4789416;30;20067;-59
2022/08/28 11:50:32;;;;;;;0.98;0.85;;;;;;;27.73;56.17;99360.75;4789886;29;20063;-59
2022/08/28 11:53:24;;;;;;;0.75;0.75;;;;;;;27.78;55.76;99356.84;4789478;29;20479;-59
2022/08/28 11:56:13;;;;;;;0.60;0.60;;;;;;;27.83;55.26;99357.28;4789573;29;20134;-60
2022/08/28 11:59:12;;;;;;;0.50;0.50;;;;;;;28.01;54.90;99349.84;4789365;29;20077;-60
2022/08/28 12:01:41;;;;;;;0.75;0.75;;;;;;;28.22;55.22;99355.22;4789571;29;20103;-59
2022/08/28 12:04:12;;;;;;;1.00;0.65;;;;;;;28.44;55.32;99352.56;4788601;29;20118;-60
2022/08/28 12:07:16;;;;;;;0.50;0.50;;;;;;;28.58;54.37;99349.66;4789273;29;20474;-60
2022/08/28 12:09:46;;;;;;;0.57;0.57;;;;;;;28.56;53.62;99347.19;4789532;29;20040;-59
2022/08/28 12:12:36;;;;;;;2.05;1.27;;;;;;;28.62;53.11;99351.16;4789200;29;20062;-59
2022/08/28 12:15:08;;;;;;;0.50;0.50;;;;;;;28.67;53.26;99348.16;4789431;29;20047;-60